AST,Max TemperatureF,Mean TemperatureF,Min TemperatureF,Max Dew PointF,MeanDew PointF,Min DewpointF,Max Humidity, Mean Humidity, Min Humidity, Max Sea Level PressureIn, Mean Sea Level PressureIn, Min Sea Level PressureIn, Max VisibilityMiles, Mean VisibilityMiles, Min VisibilityMiles, Max Wind SpeedMPH, Mean Wind SpeedMPH, Max Gust SpeedMPH,PrecipitationIn, CloudCover, Events, WindDirDegrees
2012-9-1,113,100,86,80,67,51,81,41,13,29.57,29.53,29.48,6,5,2,29,13,36,0.00,0,,320
2012-9-2,109,97,84,75,63,48,67,39,13,29.60,29.57,29.54,6,6,4,32,16,38,0.00,0,,335
2012-9-3,108,95,82,72,63,44,67,41,12,29.60,29.56,29.51,6,6,6,22,13,28,0.00,0,,316
2012-9-4,108,93,78,73,63,50,75,42,14,29.57,29.54,29.49,6,6,6,23,11,28,0.00,0,,337
2012-9-5,109,94,79,73,61,41,69,39,11,29.63,29.58,29.54,6,6,6,21,10,30,0.00,0,,348
2012-9-6,109,95,81,79,64,42,75,44,10,29.65,29.60,29.56,6,6,6,17,8,,0.00,0,,14
2012-9-7,111,96,81,81,69,38,85,52,8,29.65,29.59,29.54,6,6,6,16,6,16,0.00,0,,214
2012-9-8,111,97,83,83,65,30,76,45,6,29.61,29.56,29.50,6,6,6,14,7,23,0.00,0,,208
2012-9-9,103,93,83,82,74,62,92,59,27,29.64,29.57,29.52,6,6,4,15,6,20,0.00,0,,6
2012-9-10,108,95,82,80,66,51,87,47,15,29.63,29.58,29.53,6,6,6,16,8,17,0.00,0,,326
2012-9-11,110,96,81,78,66,51,84,45,14,29.62,29.58,29.54,6,6,6,17,9,,0.00,1,,335
2012-9-12,111,98,86,80,64,43,77,41,10,29.64,29.59,29.55,6,6,6,25,12,32,0.00,2,,334
2012-9-13,108,96,83,78,61,40,77,42,10,29.69,29.64,29.60,6,6,6,26,12,33,0.00,0,,331
2012-9-14,104,92,79,77,58,44,87,39,13,29.67,29.61,29.56,6,6,6,24,11,25,0.00,0,Rain,297
2012-9-15,101,90,78,77,69,58,76,51,31,29.58,29.54,29.49,6,5,3,26,12,32,0.00,0,,317
2012-9-16,101,90,79,79,71,57,86,58,24,29.64,29.59,29.54,6,6,6,13,8,18,0.00,0,,6
2012-9-17,108,94,79,79,63,45,90,46,12,29.68,29.64,29.60,6,6,6,20,10,24,0.00,0,,327
2012-9-18,106,92,77,79,62,38,92,46,10,29.72,29.67,29.62,6,6,6,12,5,18,0.00,0,,351
2012-9-19,105,90,76,71,58,45,69,37,16,29.74,29.69,29.64,6,6,6,10,3,,0.00,0,,19
2012-9-20,109,93,77,78,58,33,75,38,7,29.74,29.70,29.67,6,6,6,16,6,,0.00,0,,178
2012-9-21,105,92,78,83,66,36,89,53,9,29.77,29.71,29.67,6,6,6,13,6,18,0.00,0,,139
2012-9-22,105,92,80,83,64,33,100,53,8,29.80,29.74,29.70,6,6,4,13,5,,0.00,0,,45
2012-9-23,106,92,77,78,64,41,70,45,11,29.79,29.72,29.67,6,6,6,12,3,,0.00,0,,351
2012-9-24,103,92,80,78,69,46,82,56,14,29.78,29.71,29.65,6,6,6,13,7,,0.00,0,,4
2012-9-25,103,90,76,77,66,53,88,51,19,29.79,29.73,29.68,6,6,6,14,7,18,0.00,0,,340
2012-9-26,101,86,72,67,58,31,71,43,8,29.86,29.80,29.76,6,6,6,12,4,,0.00,0,,48
2012-9-27,101,90,78,80,71,53,79,58,20,29.89,29.84,29.79,6,6,6,14,6,,0.00,0,,87
2012-9-28,100,91,81,82,75,64,91,64,33,29.91,29.86,29.56,6,6,0,36,8,48,0.13,2,Rain-Thunderstorm,48
2012-9-29,100,88,77,81,73,58,99,64,27,29.92,29.86,29.81,6,6,5,12,3,,0.00,0,,342
2012-9-30,101,88,75,78,71,57,88,61,23,29.91,29.85,29.81,6,6,6,15,4,,0.00,0,,78